LIS weather

Humberto Delgado Airport (Lisbon Portela Airport)
Lisbon, Lisbon District, Portugal

Public forecast

Using degrees Celsius for public forecast. Weather courtesy of forecast.io.

Current aviation weather report (METAR) for Humberto Delgado Airport (Lisbon Portela Airport)

Retrieved 2019/10/20 02:30 UTC (4 minutes ago):

LPPT 200230Z VRB02KT 9999 FEW020 13/10 Q1011

Aviation forecast (TAF) for Humberto Delgado Airport (Lisbon Portela Airport)

Retrieved 2019-10-20 00:18 UTC (2 hours ago):

TAF LPPT 192300Z 2000/2106 30010KT 9999 FEW025 TEMPO 2000/2024 8000 SHRA BKN018 FEW020TCU BECMG 2018/2021 34005KT BECMG 2100/2103 VRB03KT